createdAt,value
2019-04-03T00:02:06.127Z,51.63
2019-04-03T00:04:35.574Z,51.59
2019-04-03T00:07:05.587Z,51.57
2019-04-03T00:09:36.830Z,51.55
2019-04-03T00:12:08.686Z,51.52
2019-04-03T00:14:42.428Z,51.50
2019-04-03T00:17:11.903Z,51.46
2019-04-03T00:19:41.419Z,51.44
2019-04-03T00:22:11.047Z,51.40
2019-04-03T00:24:40.604Z,51.39
2019-04-03T00:27:10.199Z,51.35
2019-04-03T00:29:39.685Z,51.31
2019-04-03T00:32:09.252Z,51.30
2019-04-03T00:34:38.820Z,51.28
2019-04-03T00:37:08.309Z,51.27
2019-04-03T00:39:38.398Z,51.23
2019-04-03T00:42:07.984Z,51.21
2019-04-03T00:44:37.398Z,51.19
2019-04-03T00:47:06.929Z,51.17
2019-04-03T00:49:36.479Z,51.16
2019-04-03T00:52:06.026Z,51.15
2019-04-03T00:54:35.453Z,51.12
2019-04-03T00:57:05.453Z,51.11
2019-04-03T00:59:35.104Z,51.08
2019-04-03T01:02:04.646Z,51.07
2019-04-03T01:04:34.169Z,51.04
2019-04-03T01:07:03.751Z,51.02
2019-04-03T01:09:33.284Z,51.01
2019-04-03T01:12:03.021Z,50.99
2019-04-03T01:14:32.626Z,50.99
2019-04-03T01:17:04.351Z,50.98
2019-04-03T01:19:36.110Z,50.99
2019-04-03T01:22:05.635Z,50.96
2019-04-03T01:24:38.807Z,50.96
2019-04-03T01:27:11.280Z,50.96
2019-04-03T01:29:42.340Z,50.94
2019-04-03T01:32:11.513Z,50.95
2019-04-03T01:34:41.074Z,50.99
2019-04-03T01:37:10.643Z,51.00
2019-04-03T01:39:40.169Z,51.03
2019-04-03T01:42:09.822Z,51.04
2019-04-03T01:44:39.398Z,51.13
2019-04-03T01:47:08.932Z,51.17
2019-04-03T01:49:38.444Z,51.21
2019-04-03T01:52:07.988Z,51.30
2019-04-03T01:54:37.525Z,51.35
2019-04-03T01:57:07.067Z,51.41
2019-04-03T01:59:37.584Z,51.48
2019-04-03T02:02:08.509Z,51.54
2019-04-03T02:04:38.733Z,51.58
2019-04-03T02:07:08.220Z,51.64
2019-04-03T02:09:37.842Z,51.68
2019-04-03T02:12:07.499Z,51.73
2019-04-03T02:14:37.081Z,51.74
2019-04-03T02:17:06.608Z,51.75
2019-04-03T02:19:36.280Z,51.77
2019-04-03T02:22:05.858Z,51.81
2019-04-03T02:24:35.455Z,51.81
2019-04-03T02:27:05.040Z,51.83
2019-04-03T02:29:34.829Z,51.87
2019-04-03T02:32:05.135Z,51.86
2019-04-03T02:34:36.124Z,51.87
2019-04-03T02:37:06.156Z,51.86
2019-04-03T02:39:35.769Z,51.87
2019-04-03T02:42:08.615Z,51.89
2019-04-03T02:44:37.144Z,51.94
2019-04-03T02:47:06.573Z,51.98
2019-04-03T02:49:36.196Z,52.02
2019-04-03T02:52:05.796Z,52.05
2019-04-03T02:54:38.278Z,52.09
2019-04-03T02:57:07.774Z,52.07
2019-04-03T02:59:37.574Z,52.08
2019-04-03T03:02:11.387Z,52.10
2019-04-03T03:04:39.032Z,52.12
2019-04-03T03:07:09.000Z,52.13
2019-04-03T03:09:39.684Z,52.17
2019-04-03T03:12:09.850Z,52.19
2019-04-03T03:14:40.380Z,52.23
2019-04-03T03:17:11.920Z,52.27
2019-04-03T03:19:42.045Z,52.29
2019-04-03T03:22:12.111Z,52.30
2019-04-03T03:24:41.864Z,52.31
2019-04-03T03:27:12.265Z,52.31
2019-04-03T03:29:41.791Z,52.32
2019-04-03T03:32:18.804Z,52.31
2019-04-03T03:34:53.160Z,52.32
2019-04-03T03:37:14.972Z,52.37
2019-04-03T03:39:44.743Z,52.35
2019-04-03T03:42:15.298Z,52.39
2019-04-03T03:44:46.310Z,52.43
2019-04-03T03:47:18.246Z,52.45
2019-04-03T03:49:50.066Z,52.49
2019-04-03T03:52:20.148Z,52.53
2019-04-03T03:54:51.547Z,52.59
2019-04-03T03:57:21.193Z,52.59
2019-04-03T03:59:52.649Z,52.62
2019-04-03T04:02:22.595Z,52.65
2019-04-03T04:04:52.460Z,52.65
2019-04-03T04:07:22.414Z,52.70
2019-04-03T04:09:53.680Z,52.74
2019-04-03T04:12:23.561Z,52.78
2019-04-03T04:14:56.412Z,52.81
2019-04-03T04:17:25.169Z,52.83
2019-04-03T04:19:54.734Z,52.88
2019-04-03T04:22:26.653Z,52.91
2019-04-03T04:24:57.139Z,52.91
2019-04-03T04:27:28.070Z,52.96
2019-04-03T04:29:58.737Z,52.99
2019-04-03T04:32:28.493Z,53.03
2019-04-03T04:34:58.066Z,53.04
2019-04-03T04:37:27.592Z,53.12
2019-04-03T04:39:57.965Z,53.16
2019-04-03T04:42:29.232Z,53.17
2019-04-03T04:44:59.037Z,53.24
2019-04-03T04:47:28.525Z,53.26
2019-04-03T04:49:58.034Z,53.30
2019-04-03T04:52:28.218Z,53.35
2019-04-03T04:54:57.860Z,53.38
2019-04-03T04:57:27.354Z,53.39
2019-04-03T04:59:56.773Z,53.40
2019-04-03T05:08:36.737Z,53.39
2019-04-03T05:11:07.546Z,53.43
2019-04-03T05:13:37.937Z,53.44
2019-04-03T05:16:07.856Z,53.47
2019-04-03T05:18:37.685Z,53.46
2019-04-03T05:21:12.162Z,53.46
2019-04-03T05:26:56.776Z,53.42
2019-04-03T05:29:26.262Z,53.42
2019-04-03T05:31:58.692Z,53.41
2019-04-03T05:34:28.503Z,53.34
2019-04-03T05:36:58.482Z,53.31
2019-04-03T05:39:28.224Z,53.28
2019-04-03T05:42:06.763Z,53.26
2019-04-03T05:44:36.534Z,53.27
2019-04-03T05:47:08.100Z,53.26
2019-04-03T05:49:37.575Z,53.23
2019-04-03T05:52:08.659Z,53.19
2019-04-03T05:54:39.356Z,53.16
2019-04-03T05:57:10.113Z,53.11
2019-04-03T05:59:44.561Z,53.06
2019-04-03T06:02:19.775Z,53.03
2019-04-03T06:04:46.925Z,52.98
2019-04-03T06:07:18.956Z,52.94
2019-04-03T06:09:53.105Z,52.87
2019-04-03T06:12:22.059Z,52.80
2019-04-03T06:14:52.100Z,52.74
2019-04-03T06:17:21.925Z,52.69
2019-04-03T06:19:54.212Z,52.59
2019-04-03T06:22:24.046Z,52.57
2019-04-03T06:24:55.842Z,52.51
2019-04-03T06:27:27.489Z,52.42
2019-04-03T06:29:57.730Z,52.37
2019-04-03T06:32:29.234Z,52.30
2019-04-03T06:34:59.870Z,52.25
2019-04-03T06:37:29.597Z,52.18
2019-04-03T06:40:02.350Z,52.10
2019-04-03T06:42:31.008Z,52.04
2019-04-03T06:45:01.036Z,51.95
2019-04-03T06:47:32.214Z,51.88
2019-04-03T06:50:02.256Z,51.81
2019-04-03T06:52:33.691Z,51.74
2019-04-03T06:55:04.824Z,51.63
2019-04-03T06:57:38.979Z,51.56
2019-04-03T07:00:09.419Z,51.51
2019-04-03T07:02:39.416Z,51.38
2019-04-03T07:05:42.903Z,51.29
2019-04-03T07:08:27.649Z,51.25
2019-04-03T07:10:54.905Z,51.15
2019-04-03T07:13:29.558Z,51.05
2019-04-03T07:16:03.799Z,50.96
2019-04-03T07:18:37.005Z,50.84
2019-04-03T07:21:07.873Z,50.76
2019-04-03T07:23:38.191Z,50.68
2019-04-03T07:26:07.834Z,50.64
2019-04-03T07:28:42.410Z,50.54
2019-04-03T07:31:12.095Z,50.47
2019-04-03T07:33:41.887Z,50.37
2019-04-03T07:36:13.429Z,50.26
2019-04-03T07:38:43.835Z,50.20
2019-04-03T07:41:14.055Z,50.10
2019-04-03T07:43:44.927Z,50.00
2019-04-03T07:46:16.656Z,49.95
2019-04-03T07:48:47.519Z,49.84
2019-04-03T07:51:17.633Z,49.75
2019-04-03T07:53:50.223Z,49.63
2019-04-03T07:56:19.529Z,49.61
2019-04-03T07:58:50.653Z,49.52
2019-04-03T08:01:20.359Z,49.43
2019-04-03T08:03:53.275Z,49.34
2019-04-03T08:06:23.848Z,49.28
2019-04-03T08:09:06.960Z,49.21
2019-04-03T08:11:26.852Z,49.14
2019-04-03T08:13:56.809Z,49.08
2019-04-03T08:16:27.123Z,48.94
2019-04-03T08:18:58.673Z,48.87
2019-04-03T08:21:30.875Z,48.80
2019-04-03T08:24:02.220Z,48.70
2019-04-03T08:26:32.548Z,48.63
2019-04-03T08:29:06.658Z,48.56
2019-04-03T08:31:36.959Z,48.49
2019-04-03T08:34:15.855Z,48.40
2019-04-03T08:36:39.914Z,48.32
2019-04-03T08:39:09.838Z,48.23
2019-04-03T08:41:39.579Z,48.16
2019-04-03T08:44:09.313Z,48.12
2019-04-03T08:46:44.090Z,48.02
2019-04-03T08:49:21.338Z,47.94
2019-04-03T08:51:54.090Z,47.88
2019-04-03T08:54:23.088Z,47.81
2019-04-03T08:56:52.846Z,47.70
2019-04-03T08:59:22.649Z,47.61
2019-04-03T09:01:55.097Z,47.50
2019-04-03T09:04:23.659Z,47.43
2019-04-03T09:06:54.222Z,47.38
2019-04-03T09:09:24.654Z,47.30
2019-04-03T09:11:56.062Z,47.22
2019-04-03T09:14:26.212Z,47.13
2019-04-03T09:16:57.046Z,47.03
2019-04-03T09:19:27.105Z,46.98
2019-04-03T09:21:56.980Z,46.89
2019-04-03T09:24:30.662Z,46.82
2019-04-03T09:27:00.743Z,46.76
2019-04-03T09:29:30.676Z,46.64
2019-04-03T09:32:00.346Z,46.55
2019-04-03T09:34:32.157Z,46.46
2019-04-03T09:37:05.843Z,46.36
2019-04-03T09:39:34.816Z,46.29
2019-04-03T09:42:04.705Z,46.18
2019-04-03T09:44:34.348Z,46.10
2019-04-03T09:47:05.276Z,46.01
2019-04-03T09:49:34.968Z,45.95
2019-04-03T09:52:04.825Z,45.87
2019-04-03T09:54:34.478Z,45.77
2019-04-03T09:57:05.293Z,45.70
2019-04-03T09:59:37.411Z,45.64
2019-04-03T10:02:07.010Z,45.53
2019-04-03T10:04:36.651Z,45.43
2019-04-03T10:07:06.318Z,45.36
2019-04-03T10:09:38.479Z,45.30
2019-04-03T10:12:07.172Z,45.20
2019-04-03T10:14:37.069Z,45.08
2019-04-03T10:17:07.316Z,44.95
2019-04-03T10:19:37.789Z,44.87
2019-04-03T10:22:07.878Z,44.82
2019-04-03T10:24:40.497Z,44.78
2019-04-03T10:27:11.117Z,44.74
2019-04-03T10:29:41.959Z,44.65
2019-04-03T10:32:12.686Z,44.57
2019-04-03T10:34:42.431Z,44.50
2019-04-03T10:37:14.778Z,44.46
2019-04-03T10:39:44.701Z,44.38
2019-04-03T10:42:14.677Z,44.29
2019-04-03T10:44:45.518Z,44.20
2019-04-03T10:47:15.098Z,44.16
2019-04-03T10:49:44.897Z,44.09
2019-04-03T10:52:15.161Z,44.01
2019-04-03T10:54:44.988Z,43.94
2019-04-03T10:57:14.561Z,43.83
2019-04-03T10:59:44.363Z,43.73
2019-04-03T11:02:14.140Z,43.62
2019-04-03T11:04:44.153Z,43.56
2019-04-03T11:07:13.898Z,43.48
2019-04-03T11:09:55.752Z,43.38
2019-04-03T11:12:32.461Z,43.30
2019-04-03T11:15:11.523Z,43.25
2019-04-03T11:26:35.097Z,42.91
2019-04-03T11:29:20.828Z,42.82
2019-04-03T11:31:50.584Z,42.73
2019-04-03T11:34:20.328Z,42.68
2019-04-03T11:36:52.099Z,42.62
2019-04-03T11:39:22.075Z,42.57
2019-04-03T11:41:54.515Z,42.47
2019-04-03T11:44:32.848Z,42.41
2019-04-03T11:47:24.122Z,42.34
2019-04-03T11:49:40.061Z,42.24
2019-04-03T11:52:09.949Z,42.19
2019-04-03T11:54:40.028Z,42.12
2019-04-03T11:57:10.546Z,42.06
2019-04-03T11:59:55.402Z,42.01
2019-04-03T12:02:14.323Z,41.96
2019-04-03T12:04:45.690Z,41.87
2019-04-03T12:07:15.377Z,41.80
2019-04-03T12:09:45.054Z,41.75
2019-04-03T12:12:15.289Z,41.65
2019-04-03T12:14:45.133Z,41.59
2019-04-03T12:17:14.914Z,41.51
2019-04-03T12:19:47.697Z,41.46
2019-04-03T12:22:22.079Z,41.37
2019-04-03T12:24:53.465Z,41.30
2019-04-03T12:27:26.256Z,41.26
2019-04-03T12:29:55.661Z,41.18
2019-04-03T12:32:36.597Z,41.09
2019-04-03T12:34:59.014Z,41.05
2019-04-03T12:37:31.360Z,41.02
2019-04-03T12:40:24.846Z,40.99
2019-04-03T12:43:35.628Z,40.91
2019-04-03T12:45:36.751Z,40.84
2019-04-03T12:48:12.372Z,40.81
2019-04-03T12:50:45.776Z,40.78
2019-04-03T12:53:20.279Z,40.74
2019-04-03T12:56:01.982Z,40.68
2019-04-03T12:58:35.819Z,40.64
2019-04-03T13:03:11.877Z,40.60
2019-04-03T13:04:19.683Z,40.59
2019-04-03T13:06:50.991Z,40.57
2019-04-03T13:09:24.634Z,40.53
2019-04-03T13:11:54.301Z,40.47
2019-04-03T13:14:27.014Z,40.41
2019-04-03T13:16:56.183Z,40.40
2019-04-03T13:19:25.899Z,40.36
2019-04-03T13:25:21.433Z,40.30
2019-04-03T13:33:23.613Z,40.17
2019-04-03T13:36:11.906Z,40.17
2019-04-03T13:38:43.496Z,40.14
2019-04-03T13:41:17.975Z,40.12
2019-04-03T13:47:13.191Z,40.08
2019-04-03T13:49:56.665Z,40.05
2019-04-03T13:55:24.317Z,40.01
2019-04-03T13:57:55.875Z,40.00
2019-04-03T14:01:19.189Z,40.00
2019-04-03T14:03:04.181Z,39.95
2019-04-03T14:05:55.664Z,39.97
2019-04-03T14:08:36.242Z,39.96
2019-04-03T14:15:19.235Z,39.95
2019-04-03T14:18:27.654Z,39.96
2019-04-03T14:23:10.353Z,39.95
2019-04-03T14:25:40.136Z,39.95
2019-04-03T14:28:11.357Z,39.96
2019-04-03T14:30:43.715Z,39.98
2019-04-03T14:33:12.359Z,39.98
2019-04-03T14:35:50.408Z,40.00
2019-04-03T14:38:13.242Z,40.01
2019-04-03T14:40:43.513Z,40.01
2019-04-03T14:43:14.288Z,40.03
2019-04-03T14:45:45.154Z,40.04
2019-04-03T14:48:15.030Z,40.06
2019-04-03T14:50:45.845Z,40.09
2019-04-03T14:53:15.956Z,40.11
2019-04-03T14:55:49.425Z,40.13
2019-04-03T14:58:17.779Z,40.16
2019-04-03T15:00:48.795Z,40.18
2019-04-03T15:03:18.685Z,40.19
2019-04-03T15:05:48.308Z,40.17
2019-04-03T15:08:18.255Z,40.19
2019-04-03T15:10:50.038Z,40.18
2019-04-03T15:13:19.114Z,40.19
2019-04-03T15:15:48.796Z,40.20
2019-04-03T15:18:18.636Z,40.19
2019-04-03T15:20:49.221Z,40.19
2019-04-03T15:23:19.894Z,40.18
2019-04-03T15:25:52.166Z,40.15
2019-04-03T15:28:20.788Z,40.16
2019-04-03T15:30:50.555Z,40.16
2019-04-03T15:33:23.178Z,40.14
2019-04-03T15:35:51.282Z,40.17
2019-04-03T15:38:20.979Z,40.16
2019-04-03T15:40:50.572Z,40.17
2019-04-03T15:43:20.242Z,40.22
2019-04-03T15:45:49.776Z,40.40
2019-04-03T15:48:21.458Z,40.57
2019-04-03T15:50:50.562Z,40.74
2019-04-03T15:53:20.704Z,40.89
2019-04-03T15:55:52.600Z,41.05
2019-04-03T15:58:22.834Z,41.18
2019-04-03T16:00:54.677Z,41.30
2019-04-03T16:03:29.247Z,41.45
2019-04-03T16:05:58.797Z,41.55
2019-04-03T16:08:29.975Z,41.71
2019-04-03T16:10:59.580Z,41.82
2019-04-03T16:13:29.717Z,41.95
2019-04-03T16:16:00.810Z,42.07
2019-04-03T16:18:30.745Z,42.01
2019-04-03T16:21:00.508Z,41.96
2019-04-03T16:23:30.749Z,41.91
2019-04-03T16:26:00.445Z,41.88
2019-04-03T16:28:33.273Z,41.85
2019-04-03T16:31:01.601Z,41.84
2019-04-03T16:33:31.376Z,41.81
2019-04-03T16:36:02.479Z,41.78
2019-04-03T16:38:32.512Z,41.77
2019-04-03T16:41:02.537Z,41.78
2019-04-03T16:43:32.341Z,41.76
2019-04-03T16:46:01.841Z,41.77
2019-04-03T16:48:31.486Z,41.77
2019-04-03T16:51:01.576Z,41.79
2019-04-03T16:53:31.219Z,41.78
2019-04-03T16:56:01.089Z,41.80
2019-04-03T16:58:31.052Z,41.82
2019-04-03T17:01:00.493Z,41.83
2019-04-03T17:03:32.054Z,41.85
2019-04-03T17:06:01.462Z,41.89
2019-04-03T17:08:30.970Z,41.89
2019-04-03T17:11:00.481Z,41.92
2019-04-03T17:13:29.981Z,41.96
2019-04-03T17:15:59.658Z,41.98
2019-04-03T17:18:29.249Z,42.00
2019-04-03T17:20:58.854Z,42.05
2019-04-03T17:23:28.826Z,42.09
2019-04-03T17:25:59.271Z,42.14
2019-04-03T17:28:29.005Z,42.15
2019-04-03T17:30:58.665Z,42.20
2019-04-03T17:33:29.578Z,42.29
2019-04-03T17:35:59.086Z,42.40
2019-04-03T17:38:31.453Z,42.49
2019-04-03T17:40:59.828Z,42.53
2019-04-03T17:43:29.457Z,42.57
2019-04-03T17:45:58.967Z,42.55
2019-04-03T17:48:28.399Z,42.61
2019-04-03T17:50:58.049Z,42.61
2019-04-03T17:53:27.665Z,42.62
2019-04-03T17:55:57.185Z,42.65
2019-04-03T17:58:26.784Z,42.68
2019-04-03T18:00:56.375Z,42.70
2019-04-03T18:03:26.054Z,42.71
2019-04-03T18:05:56.908Z,42.73
2019-04-03T18:11:42.835Z,42.77
2019-04-03T18:14:21.861Z,42.83
2019-04-03T18:17:13.190Z,42.83
2019-04-03T18:19:42.626Z,42.87
2019-04-03T18:22:14.146Z,42.90
2019-04-03T18:24:45.035Z,42.93
2019-04-03T18:27:18.041Z,42.99
2019-04-03T18:30:02.383Z,43.04
2019-04-03T18:32:33.558Z,43.10
2019-04-03T18:35:08.416Z,43.16
2019-04-03T18:37:41.889Z,43.22
2019-04-03T18:40:13.980Z,43.25
2019-04-03T18:42:43.301Z,43.33
2019-04-03T18:45:24.601Z,43.40
2019-04-03T18:47:47.230Z,43.47
2019-04-03T18:50:17.258Z,43.53
2019-04-03T18:52:50.156Z,43.60
2019-04-03T18:55:25.994Z,43.67
2019-04-03T18:57:59.572Z,43.73
2019-04-03T19:00:30.737Z,43.78
2019-04-03T19:03:01.768Z,43.83
2019-04-03T19:05:34.566Z,43.85
2019-04-03T19:08:13.027Z,43.90
2019-04-03T19:10:37.194Z,43.95
2019-04-03T19:13:06.953Z,43.99
2019-04-03T19:15:39.646Z,44.01
2019-04-03T19:18:19.432Z,43.99
2019-04-03T19:20:41.877Z,43.98
2019-04-03T19:23:11.652Z,43.99
2019-04-03T19:25:41.412Z,44.02
2019-04-03T19:28:11.042Z,44.05
2019-04-03T19:30:41.610Z,44.11
2019-04-03T19:33:12.063Z,44.18
2019-04-03T19:35:42.567Z,44.21
2019-04-03T19:38:13.373Z,44.24
2019-04-03T19:40:43.132Z,44.28
2019-04-03T19:43:14.668Z,44.32
2019-04-03T19:45:44.318Z,44.35
2019-04-03T19:48:13.903Z,44.40
2019-04-03T19:50:43.566Z,44.40
2019-04-03T19:53:14.043Z,44.43
2019-04-03T19:55:43.867Z,44.45
2019-04-03T19:58:13.511Z,44.43
2019-04-03T20:00:43.171Z,44.44
2019-04-03T20:03:14.092Z,44.42
2019-04-03T20:05:44.598Z,44.44
2019-04-03T20:08:14.416Z,44.46
2019-04-03T20:10:44.188Z,44.47
2019-04-03T20:13:28.438Z,44.51
2019-04-03T20:16:10.607Z,44.53
2019-04-03T20:18:53.028Z,44.56
2019-04-03T20:21:25.794Z,44.60
2019-04-03T20:24:12.525Z,44.64
2019-04-03T20:26:41.809Z,44.69
2019-04-03T20:29:11.431Z,44.70
2019-04-03T20:31:41.128Z,44.73
2019-04-03T20:34:13.020Z,44.75
2019-04-03T20:36:54.967Z,44.81
2019-04-03T20:39:29.056Z,44.85
2019-04-03T20:41:59.485Z,44.90
2019-04-03T20:44:29.000Z,44.98
2019-04-03T20:46:59.171Z,45.03
2019-04-03T20:49:29.841Z,45.13
2019-04-03T20:51:59.228Z,45.19
2019-04-03T20:54:28.724Z,45.23
2019-04-03T20:57:02.150Z,45.30
2019-04-03T20:59:30.224Z,45.36
2019-04-03T21:01:59.999Z,45.44
2019-04-03T21:04:29.887Z,45.49
2019-04-03T21:06:59.391Z,45.53
2019-04-03T21:09:30.435Z,45.59
2019-04-03T21:12:00.178Z,45.65
2019-04-03T21:14:29.797Z,45.70
2019-04-03T21:17:02.920Z,45.74
2019-04-03T21:19:32.475Z,45.75
2019-04-03T21:22:01.891Z,45.78
2019-04-03T21:24:34.167Z,45.85
2019-04-03T21:27:02.720Z,45.91
2019-04-03T21:29:32.333Z,45.93
2019-04-03T21:32:01.939Z,45.97
2019-04-03T21:34:32.827Z,46.04
2019-04-03T21:37:02.715Z,46.12
2019-04-03T21:39:33.785Z,46.16
2019-04-03T21:42:03.805Z,46.24
2019-04-03T21:44:34.964Z,46.29
2019-04-03T21:47:04.667Z,46.33
2019-04-03T21:49:34.352Z,46.41
2019-04-03T21:52:26.456Z,46.47
2019-04-03T21:54:59.992Z,46.53
2019-04-03T21:57:32.495Z,46.59
2019-04-03T22:00:05.939Z,46.65
2019-04-03T22:02:57.741Z,46.70
2019-04-03T22:05:27.426Z,46.75
2019-04-03T22:07:59.844Z,46.84
2019-04-03T22:10:32.787Z,46.88
2019-04-03T22:13:10.470Z,46.92
2019-04-03T22:15:40.185Z,46.95
2019-04-03T22:18:14.364Z,47.00
2019-04-03T22:20:44.006Z,47.05
2019-04-03T22:23:14.868Z,47.11
2019-04-03T22:25:44.807Z,47.13
2019-04-03T22:28:14.486Z,47.19
2019-04-03T22:30:44.102Z,47.23
2019-04-03T22:33:25.914Z,47.29
2019-04-03T22:36:03.303Z,47.30
2019-04-03T22:38:37.262Z,47.35
2019-04-03T22:41:07.465Z,47.37
2019-04-03T22:43:37.062Z,47.40
2019-04-03T22:46:07.264Z,47.44
2019-04-03T22:48:36.933Z,47.46
2019-04-03T22:51:06.927Z,47.49
2019-04-03T22:53:37.148Z,47.52
2019-04-03T22:56:06.856Z,47.57
2019-04-03T22:58:36.655Z,47.59
2019-04-03T23:01:06.804Z,47.62
2019-04-03T23:03:44.899Z,47.67
2019-04-03T23:06:14.557Z,47.69
2019-04-03T23:08:44.126Z,47.74
2019-04-03T23:11:13.709Z,47.77
2019-04-03T23:13:43.423Z,47.81
2019-04-03T23:16:13.068Z,47.83
2019-04-03T23:18:42.712Z,47.88
2019-04-03T23:21:12.354Z,47.94
2019-04-03T23:23:41.920Z,47.98
2019-04-03T23:26:11.612Z,48.02
2019-04-03T23:28:41.167Z,48.06
2019-04-03T23:31:11.181Z,48.09
2019-04-03T23:33:42.130Z,48.14
2019-04-03T23:36:11.731Z,48.18
2019-04-03T23:38:42.672Z,48.22
2019-04-03T23:41:12.338Z,48.27
2019-04-03T23:43:42.099Z,48.31
2019-04-03T23:46:12.817Z,48.38
2019-04-03T23:48:42.980Z,48.39
2019-04-03T23:51:22.638Z,48.43
2019-04-03T23:53:43.989Z,48.47
2019-04-03T23:56:13.642Z,48.51
2019-04-03T23:58:43.350Z,48.55
